sensor_id;sensor_type;location;lat;lon;timestamp;temperature;humidity
20057;DHT22;10189;49.546;7.906;2023-08-08T00:01:36;10.30;97.70
20057;DHT22;10189;49.546;7.906;2023-08-08T00:04:02;10.30;97.70
20057;DHT22;10189;49.546;7.906;2023-08-08T00:06:28;10.30;98.00
20057;DHT22;10189;49.546;7.906;2023-08-08T00:08:53;10.20;98.10
20057;DHT22;10189;49.546;7.906;2023-08-08T00:11:19;10.20;98.10
20057;DHT22;10189;49.546;7.906;2023-08-08T00:13:45;10.10;98.20
20057;DHT22;10189;49.546;7.906;2023-08-08T00:16:11;10.10;98.40
20057;DHT22;10189;49.546;7.906;2023-08-08T00:18:37;10.10;98.60
20057;DHT22;10189;49.546;7.906;2023-08-08T00:21:03;10.10;98.70
20057;DHT22;10189;49.546;7.906;2023-08-08T00:23:29;10.00;99.10
20057;DHT22;10189;49.546;7.906;2023-08-08T00:25:55;10.00;99.50
20057;DHT22;10189;49.546;7.906;2023-08-08T00:28:20;10.00;99.90
20057;DHT22;10189;49.546;7.906;2023-08-08T00:30:46;9.90;99.80
20057;DHT22;10189;49.546;7.906;2023-08-08T00:33:12;9.80;99.90
20057;DHT22;10189;49.546;7.906;2023-08-08T00:35:38;9.80;99.90
20057;DHT22;10189;49.546;7.906;2023-08-08T00:38:04;9.70;99.90
20057;DHT22;10189;49.546;7.906;2023-08-08T00:40:30;9.70;99.90
20057;DHT22;10189;49.546;7.906;2023-08-08T00:42:56;9.70;99.90
20057;DHT22;10189;49.546;7.906;2023-08-08T00:45:21;9.70;99.90
20057;DHT22;10189;49.546;7.906;2023-08-08T00:47:48;9.60;99.90
20057;DHT22;10189;49.546;7.906;2023-08-08T00:50:14;9.60;99.90
20057;DHT22;10189;49.546;7.906;2023-08-08T00:52:41;9.60;99.90
20057;DHT22;10189;49.546;7.906;2023-08-08T00:55:08;9.50;99.90
20057;DHT22;10189;49.546;7.906;2023-08-08T00:57:34;9.50;99.90
20057;DHT22;10189;49.546;7.906;2023-08-08T01:00:06;9.50;99.90
20057;DHT22;10189;49.546;7.906;2023-08-08T01:02:33;9.40;99.90
20057;DHT22;10189;49.546;7.906;2023-08-08T01:05:00;9.40;99.90
20057;DHT22;10189;49.546;7.906;2023-08-08T01:10:29;9.40;99.90
20057;DHT22;10189;49.546;7.906;2023-08-08T01:13:07;9.50;99.90
20057;DHT22;10189;49.546;7.906;2023-08-08T01:15:36;9.50;99.90
20057;DHT22;10189;49.546;7.906;2023-08-08T01:18:08;9.40;99.90
20057;DHT22;10189;49.546;7.906;2023-08-08T01:20:35;9.40;99.90
20057;DHT22;10189;49.546;7.906;2023-08-08T01:26:00;9.40;99.90
20057;DHT22;10189;49.546;7.906;2023-08-08T01:28:27;9.40;99.90
20057;DHT22;10189;49.546;7.906;2023-08-08T01:30:53;9.30;99.90
20057;DHT22;10189;49.546;7.906;2023-08-08T01:33:19;9.20;99.90
20057;DHT22;10189;49.546;7.906;2023-08-08T01:35:50;9.20;99.90
20057;DHT22;10189;49.546;7.906;2023-08-08T01:38:25;9.20;99.90
20057;DHT22;10189;49.546;7.906;2023-08-08T01:40:56;9.10;99.90
20057;DHT22;10189;49.546;7.906;2023-08-08T01:43:24;9.20;99.90
20057;DHT22;10189;49.546;7.906;2023-08-08T01:45:52;9.10;99.90
20057;DHT22;10189;49.546;7.906;2023-08-08T01:48:20;9.10;99.90
20057;DHT22;10189;49.546;7.906;2023-08-08T01:50:46;9.00;99.90
20057;DHT22;10189;49.546;7.906;2023-08-08T01:53:12;9.10;99.90
20057;DHT22;10189;49.546;7.906;2023-08-08T01:55:38;9.10;99.90
20057;DHT22;10189;49.546;7.906;2023-08-08T01:58:04;9.00;99.90
20057;DHT22;10189;49.546;7.906;2023-08-08T02:00:30;8.90;99.90
20057;DHT22;10189;49.546;7.906;2023-08-08T02:02:56;8.90;99.90
20057;DHT22;10189;49.546;7.906;2023-08-08T02:05:22;9.00;99.90
20057;DHT22;10189;49.546;7.906;2023-08-08T02:07:48;8.90;99.90
20057;DHT22;10189;49.546;7.906;2023-08-08T02:10:14;8.90;99.90
20057;DHT22;10189;49.546;7.906;2023-08-08T02:12:39;9.00;99.90
20057;DHT22;10189;49.546;7.906;2023-08-08T02:15:06;9.00;99.90
20057;DHT22;10189;49.546;7.906;2023-08-08T02:17:32;9.10;99.90
20057;DHT22;10189;49.546;7.906;2023-08-08T02:19:58;9.10;99.90
20057;DHT22;10189;49.546;7.906;2023-08-08T02:22:24;9.10;99.90
20057;DHT22;10189;49.546;7.906;2023-08-08T02:24:50;9.20;99.90
20057;DHT22;10189;49.546;7.906;2023-08-08T02:27:17;9.20;99.90
20057;DHT22;10189;49.546;7.906;2023-08-08T02:29:43;9.20;99.90
20057;DHT22;10189;49.546;7.906;2023-08-08T02:32:08;9.30;99.90
20057;DHT22;10189;49.546;7.906;2023-08-08T02:34:34;9.20;99.90
20057;DHT22;10189;49.546;7.906;2023-08-08T02:37:00;9.20;99.90
20057;DHT22;10189;49.546;7.906;2023-08-08T02:39:26;9.10;99.90
20057;DHT22;10189;49.546;7.906;2023-08-08T02:41:52;9.00;99.90
20057;DHT22;10189;49.546;7.906;2023-08-08T02:44:18;8.90;99.90
20057;DHT22;10189;49.546;7.906;2023-08-08T02:46:45;8.90;99.90
20057;DHT22;10189;49.546;7.906;2023-08-08T02:49:11;8.90;99.90
20057;DHT22;10189;49.546;7.906;2023-08-08T02:51:37;8.80;99.90
20057;DHT22;10189;49.546;7.906;2023-08-08T02:54:03;8.70;99.90
20057;DHT22;10189;49.546;7.906;2023-08-08T02:56:31;8.70;99.90
20057;DHT22;10189;49.546;7.906;2023-08-08T02:58:57;8.60;99.90
20057;DHT22;10189;49.546;7.906;2023-08-08T03:01:24;8.50;99.90
20057;DHT22;10189;49.546;7.906;2023-08-08T03:03:50;8.50;99.90
20057;DHT22;10189;49.546;7.906;2023-08-08T03:06:18;8.50;99.90
20057;DHT22;10189;49.546;7.906;2023-08-08T03:08:44;8.50;99.90
20057;DHT22;10189;49.546;7.906;2023-08-08T03:11:10;8.50;99.90
20057;DHT22;10189;49.546;7.906;2023-08-08T03:13:36;8.50;99.90
20057;DHT22;10189;49.546;7.906;2023-08-08T03:16:03;8.60;99.90
20057;DHT22;10189;49.546;7.906;2023-08-08T03:18:29;8.60;99.90
20057;DHT22;10189;49.546;7.906;2023-08-08T03:20:56;8.60;99.90
20057;DHT22;10189;49.546;7.906;2023-08-08T03:23:23;8.60;99.90
20057;DHT22;10189;49.546;7.906;2023-08-08T03:25:49;8.60;99.90
20057;DHT22;10189;49.546;7.906;2023-08-08T03:28:16;8.60;99.90
20057;DHT22;10189;49.546;7.906;2023-08-08T03:30:42;8.50;99.90
20057;DHT22;10189;49.546;7.906;2023-08-08T03:33:10;8.40;99.90
20057;DHT22;10189;49.546;7.906;2023-08-08T03:35:35;8.30;99.90
20057;DHT22;10189;49.546;7.906;2023-08-08T03:38:01;8.40;99.90
20057;DHT22;10189;49.546;7.906;2023-08-08T03:40:28;8.30;99.90
20057;DHT22;10189;49.546;7.906;2023-08-08T03:42:54;8.30;99.90
20057;DHT22;10189;49.546;7.906;2023-08-08T03:45:20;8.30;99.90
20057;DHT22;10189;49.546;7.906;2023-08-08T03:47:46;8.30;99.90
20057;DHT22;10189;49.546;7.906;2023-08-08T03:50:12;8.20;99.90
20057;DHT22;10189;49.546;7.906;2023-08-08T03:52:39;8.20;99.90
20057;DHT22;10189;49.546;7.906;2023-08-08T03:55:09;8.20;99.90
20057;DHT22;10189;49.546;7.906;2023-08-08T03:57:36;8.20;99.90
20057;DHT22;10189;49.546;7.906;2023-08-08T04:00:02;8.20;99.90
20057;DHT22;10189;49.546;7.906;2023-08-08T04:02:38;8.20;99.90
20057;DHT22;10189;49.546;7.906;2023-08-08T04:05:05;8.20;99.90
20057;DHT22;10189;49.546;7.906;2023-08-08T04:07:31;8.10;99.90
20057;DHT22;10189;49.546;7.906;2023-08-08T04:09:58;8.10;99.90
20057;DHT22;10189;49.546;7.906;2023-08-08T04:12:24;8.10;99.90
20057;DHT22;10189;49.546;7.906;2023-08-08T04:14:49;8.10;99.90
20057;DHT22;10189;49.546;7.906;2023-08-08T04:17:15;8.10;99.90
20057;DHT22;10189;49.546;7.906;2023-08-08T04:19:41;8.20;99.90
20057;DHT22;10189;49.546;7.906;2023-08-08T04:22:07;8.30;99.90
20057;DHT22;10189;49.546;7.906;2023-08-08T04:24:33;8.30;99.90
20057;DHT22;10189;49.546;7.906;2023-08-08T04:26:59;8.30;99.90
20057;DHT22;10189;49.546;7.906;2023-08-08T04:29:24;8.30;99.90
20057;DHT22;10189;49.546;7.906;2023-08-08T04:31:50;8.30;99.90
20057;DHT22;10189;49.546;7.906;2023-08-08T04:34:16;8.30;99.90
20057;DHT22;10189;49.546;7.906;2023-08-08T04:36:42;8.30;99.90
20057;DHT22;10189;49.546;7.906;2023-08-08T04:39:08;8.30;99.90
20057;DHT22;10189;49.546;7.906;2023-08-08T04:41:34;8.30;99.90
20057;DHT22;10189;49.546;7.906;2023-08-08T04:44:00;8.30;99.90
20057;DHT22;10189;49.546;7.906;2023-08-08T04:46:25;8.30;99.90
20057;DHT22;10189;49.546;7.906;2023-08-08T04:48:51;8.30;99.90
20057;DHT22;10189;49.546;7.906;2023-08-08T04:51:17;8.40;99.90
20057;DHT22;10189;49.546;7.906;2023-08-08T04:53:43;8.40;99.90
20057;DHT22;10189;49.546;7.906;2023-08-08T04:56:09;8.40;99.90
20057;DHT22;10189;49.546;7.906;2023-08-08T04:58:35;8.60;99.90
20057;DHT22;10189;49.546;7.906;2023-08-08T05:01:01;8.80;99.90
20057;DHT22;10189;49.546;7.906;2023-08-08T05:03:26;9.00;99.90
20057;DHT22;10189;49.546;7.906;2023-08-08T05:05:52;9.30;99.90
20057;DHT22;10189;49.546;7.906;2023-08-08T05:08:18;9.50;99.90
20057;DHT22;10189;49.546;7.906;2023-08-08T05:10:44;9.70;99.90
20057;DHT22;10189;49.546;7.906;2023-08-08T05:13:12;9.90;99.90
20057;DHT22;10189;49.546;7.906;2023-08-08T05:15:38;10.10;99.90
20057;DHT22;10189;49.546;7.906;2023-08-08T05:18:04;10.40;99.90
20057;DHT22;10189;49.546;7.906;2023-08-08T05:20:30;10.60;99.90
20057;DHT22;10189;49.546;7.906;2023-08-08T05:22:56;10.70;99.90
20057;DHT22;10189;49.546;7.906;2023-08-08T05:25:22;10.90;99.90
20057;DHT22;10189;49.546;7.906;2023-08-08T05:27:48;11.10;99.90
20057;DHT22;10189;49.546;7.906;2023-08-08T05:30:15;11.30;99.90
20057;DHT22;10189;49.546;7.906;2023-08-08T05:32:42;11.60;99.90
20057;DHT22;10189;49.546;7.906;2023-08-08T05:35:08;11.70;99.90
20057;DHT22;10189;49.546;7.906;2023-08-08T05:37:34;11.80;99.80
20057;DHT22;10189;49.546;7.906;2023-08-08T05:40:00;12.00;99.10
20057;DHT22;10189;49.546;7.906;2023-08-08T05:42:26;12.20;96.10
20057;DHT22;10189;49.546;7.906;2023-08-08T05:44:51;12.20;95.60
20057;DHT22;10189;49.546;7.906;2023-08-08T05:47:17;12.30;94.60
20057;DHT22;10189;49.546;7.906;2023-08-08T05:49:43;12.50;94.00
20057;DHT22;10189;49.546;7.906;2023-08-08T05:52:09;12.60;93.30
20057;DHT22;10189;49.546;7.906;2023-08-08T05:54:35;12.70;93.20
20057;DHT22;10189;49.546;7.906;2023-08-08T05:57:02;12.80;93.60
20057;DHT22;10189;49.546;7.906;2023-08-08T05:59:28;13.00;91.40
20057;DHT22;10189;49.546;7.906;2023-08-08T06:01:54;13.20;89.20
20057;DHT22;10189;49.546;7.906;2023-08-08T06:04:20;13.30;88.80
20057;DHT22;10189;49.546;7.906;2023-08-08T06:06:46;13.40;88.40
20057;DHT22;10189;49.546;7.906;2023-08-08T06:09:15;13.60;88.40
20057;DHT22;10189;49.546;7.906;2023-08-08T06:11:41;13.80;87.60
20057;DHT22;10189;49.546;7.906;2023-08-08T06:14:07;13.80;86.70
20057;DHT22;10189;49.546;7.906;2023-08-08T06:16:33;13.90;85.70
20057;DHT22;10189;49.546;7.906;2023-08-08T06:18:58;14.10;85.10
20057;DHT22;10189;49.546;7.906;2023-08-08T06:21:24;14.10;83.60
20057;DHT22;10189;49.546;7.906;2023-08-08T06:23:51;14.20;84.30
20057;DHT22;10189;49.546;7.906;2023-08-08T06:26:20;14.40;84.70
20057;DHT22;10189;49.546;7.906;2023-08-08T06:28:47;14.40;82.80
20057;DHT22;10189;49.546;7.906;2023-08-08T06:31:14;14.40;84.30
20057;DHT22;10189;49.546;7.906;2023-08-08T06:33:40;14.60;84.00
20057;DHT22;10189;49.546;7.906;2023-08-08T06:36:06;14.60;83.60
20057;DHT22;10189;49.546;7.906;2023-08-08T06:38:32;14.70;82.90
20057;DHT22;10189;49.546;7.906;2023-08-08T06:41:02;14.80;81.50
20057;DHT22;10189;49.546;7.906;2023-08-08T06:43:28;14.90;82.20
20057;DHT22;10189;49.546;7.906;2023-08-08T06:45:55;15.00;79.00
20057;DHT22;10189;49.546;7.906;2023-08-08T06:48:21;15.00;82.40
20057;DHT22;10189;49.546;7.906;2023-08-08T06:50:48;15.10;81.10
20057;DHT22;10189;49.546;7.906;2023-08-08T06:53:13;15.10;81.30
20057;DHT22;10189;49.546;7.906;2023-08-08T06:55:40;15.00;79.50
20057;DHT22;10189;49.546;7.906;2023-08-08T06:58:05;15.20;80.40
20057;DHT22;10189;49.546;7.906;2023-08-08T07:00:31;15.20;77.90
20057;DHT22;10189;49.546;7.906;2023-08-08T07:02:57;15.30;76.90
20057;DHT22;10189;49.546;7.906;2023-08-08T07:05:23;15.30;76.20
20057;DHT22;10189;49.546;7.906;2023-08-08T07:07:52;15.40;76.60
20057;DHT22;10189;49.546;7.906;2023-08-08T07:10:18;15.50;75.60
20057;DHT22;10189;49.546;7.906;2023-08-08T07:12:45;15.60;76.30
20057;DHT22;10189;49.546;7.906;2023-08-08T07:15:11;15.70;76.00
20057;DHT22;10189;49.546;7.906;2023-08-08T07:17:37;15.60;75.10
20057;DHT22;10189;49.546;7.906;2023-08-08T07:20:04;15.80;73.60
20057;DHT22;10189;49.546;7.906;2023-08-08T07:22:31;16.00;73.90
20057;DHT22;10189;49.546;7.906;2023-08-08T07:24:59;16.10;74.10
20057;DHT22;10189;49.546;7.906;2023-08-08T07:27:26;16.00;70.40
20057;DHT22;10189;49.546;7.906;2023-08-08T07:29:52;16.00;70.10
20057;DHT22;10189;49.546;7.906;2023-08-08T07:32:18;15.50;70.60
20057;DHT22;10189;49.546;7.906;2023-08-08T07:34:44;15.40;70.90
20057;DHT22;10189;49.546;7.906;2023-08-08T07:37:10;15.40;73.90
20057;DHT22;10189;49.546;7.906;2023-08-08T07:39:36;15.50;71.40
20057;DHT22;10189;49.546;7.906;2023-08-08T07:42:02;15.60;70.20
20057;DHT22;10189;49.546;7.906;2023-08-08T07:44:28;15.70;71.60
20057;DHT22;10189;49.546;7.906;2023-08-08T07:46:54;15.70;71.40
20057;DHT22;10189;49.546;7.906;2023-08-08T07:49:20;15.70;68.60
20057;DHT22;10189;49.546;7.906;2023-08-08T07:51:45;15.50;70.50
20057;DHT22;10189;49.546;7.906;2023-08-08T07:54:11;15.60;71.30
20057;DHT22;10189;49.546;7.906;2023-08-08T07:56:37;16.10;70.80
20057;DHT22;10189;49.546;7.906;2023-08-08T07:59:03;16.40;68.40
20057;DHT22;10189;49.546;7.906;2023-08-08T08:01:29;16.70;68.20
20057;DHT22;10189;49.546;7.906;2023-08-08T08:03:55;16.80;67.90
20057;DHT22;10189;49.546;7.906;2023-08-08T08:06:21;16.60;68.50
20057;DHT22;10189;49.546;7.906;2023-08-08T08:08:47;16.60;66.70
20057;DHT22;10189;49.546;7.906;2023-08-08T08:11:13;16.40;68.20
20057;DHT22;10189;49.546;7.906;2023-08-08T08:13:41;16.10;66.30
20057;DHT22;10189;49.546;7.906;2023-08-08T08:16:07;16.00;66.60
20057;DHT22;10189;49.546;7.906;2023-08-08T08:18:33;15.90;67.40
20057;DHT22;10189;49.546;7.906;2023-08-08T08:21:00;16.00;66.90
20057;DHT22;10189;49.546;7.906;2023-08-08T08:23:27;16.00;68.60
20057;DHT22;10189;49.546;7.906;2023-08-08T08:25:53;16.40;69.00
20057;DHT22;10189;49.546;7.906;2023-08-08T08:28:18;16.60;67.60
20057;DHT22;10189;49.546;7.906;2023-08-08T08:30:44;16.80;67.00
20057;DHT22;10189;49.546;7.906;2023-08-08T08:33:10;17.00;69.50
20057;DHT22;10189;49.546;7.906;2023-08-08T08:35:36;17.30;66.30
20057;DHT22;10189;49.546;7.906;2023-08-08T08:38:03;17.30;67.20
20057;DHT22;10189;49.546;7.906;2023-08-08T08:40:33;17.40;67.50
20057;DHT22;10189;49.546;7.906;2023-08-08T08:43:02;17.50;65.00
20057;DHT22;10189;49.546;7.906;2023-08-08T08:45:29;17.50;66.10
20057;DHT22;10189;49.546;7.906;2023-08-08T08:47:56;17.30;64.40
20057;DHT22;10189;49.546;7.906;2023-08-08T08:50:27;17.50;65.30
20057;DHT22;10189;49.546;7.906;2023-08-08T08:52:54;17.60;64.10
20057;DHT22;10189;49.546;7.906;2023-08-08T08:55:21;17.80;62.10
20057;DHT22;10189;49.546;7.906;2023-08-08T08:57:49;17.80;61.90
20057;DHT22;10189;49.546;7.906;2023-08-08T09:00:16;17.90;63.80
20057;DHT22;10189;49.546;7.906;2023-08-08T09:02:43;17.90;64.00
20057;DHT22;10189;49.546;7.906;2023-08-08T09:05:09;17.90;60.30
20057;DHT22;10189;49.546;7.906;2023-08-08T09:07:37;17.90;59.70
20057;DHT22;10189;49.546;7.906;2023-08-08T09:10:03;17.80;60.80
20057;DHT22;10189;49.546;7.906;2023-08-08T09:12:31;17.80;61.20
20057;DHT22;10189;49.546;7.906;2023-08-08T09:14:57;17.70;59.50
20057;DHT22;10189;49.546;7.906;2023-08-08T09:17:27;17.80;58.30
20057;DHT22;10189;49.546;7.906;2023-08-08T09:19:56;18.00;60.70
20057;DHT22;10189;49.546;7.906;2023-08-08T09:22:24;18.20;58.70
20057;DHT22;10189;49.546;7.906;2023-08-08T09:24:51;18.30;57.90
20057;DHT22;10189;49.546;7.906;2023-08-08T09:27:17;18.50;59.50
20057;DHT22;10189;49.546;7.906;2023-08-08T09:29:43;18.20;57.40
20057;DHT22;10189;49.546;7.906;2023-08-08T09:32:09;18.40;58.00
20057;DHT22;10189;49.546;7.906;2023-08-08T09:34:36;18.50;58.40
20057;DHT22;10189;49.546;7.906;2023-08-08T09:37:02;18.60;57.80
20057;DHT22;10189;49.546;7.906;2023-08-08T09:39:29;18.80;57.60
20057;DHT22;10189;49.546;7.906;2023-08-08T09:41:58;18.80;56.30
20057;DHT22;10189;49.546;7.906;2023-08-08T09:44:25;18.70;56.20
20057;DHT22;10189;49.546;7.906;2023-08-08T09:46:53;18.50;55.80
20057;DHT22;10189;49.546;7.906;2023-08-08T09:49:19;18.40;56.70
20057;DHT22;10189;49.546;7.906;2023-08-08T09:51:48;18.40;57.90
20057;DHT22;10189;49.546;7.906;2023-08-08T09:54:15;18.40;55.80
20057;DHT22;10189;49.546;7.906;2023-08-08T09:56:42;18.30;56.20
20057;DHT22;10189;49.546;7.906;2023-08-08T09:59:09;18.30;54.90
20057;DHT22;10189;49.546;7.906;2023-08-08T10:01:36;18.40;55.30
20057;DHT22;10189;49.546;7.906;2023-08-08T10:04:06;18.60;55.70
20057;DHT22;10189;49.546;7.906;2023-08-08T10:06:32;18.60;57.50
20057;DHT22;10189;49.546;7.906;2023-08-08T10:08:59;18.70;57.50
20057;DHT22;10189;49.546;7.906;2023-08-08T10:11:27;19.10;54.60
20057;DHT22;10189;49.546;7.906;2023-08-08T10:13:54;19.00;55.10
20057;DHT22;10189;49.546;7.906;2023-08-08T10:16:22;19.10;55.20
20057;DHT22;10189;49.546;7.906;2023-08-08T10:18:59;19.10;54.60
20057;DHT22;10189;49.546;7.906;2023-08-08T10:21:26;18.90;55.20
20057;DHT22;10189;49.546;7.906;2023-08-08T10:24:08;19.10;55.80
20057;DHT22;10189;49.546;7.906;2023-08-08T10:26:51;19.40;55.60
20057;DHT22;10189;49.546;7.906;2023-08-08T10:29:25;19.60;56.30
20057;DHT22;10189;49.546;7.906;2023-08-08T10:32:03;19.90;53.40
20057;DHT22;10189;49.546;7.906;2023-08-08T10:37:17;19.90;53.60
20057;DHT22;10189;49.546;7.906;2023-08-08T10:39:53;20.00;54.50
20057;DHT22;10189;49.546;7.906;2023-08-08T10:42:31;19.80;53.20
20057;DHT22;10189;49.546;7.906;2023-08-08T10:45:00;20.30;54.30
20057;DHT22;10189;49.546;7.906;2023-08-08T10:47:36;20.50;51.80
20057;DHT22;10189;49.546;7.906;2023-08-08T10:50:06;20.80;51.90
20057;DHT22;10189;49.546;7.906;2023-08-08T10:52:49;20.70;51.80
20057;DHT22;10189;49.546;7.906;2023-08-08T10:55:20;20.80;53.30
20057;DHT22;10189;49.546;7.906;2023-08-08T10:57:59;20.50;51.50
20057;DHT22;10189;49.546;7.906;2023-08-08T11:00:31;20.10;50.90
20057;DHT22;10189;49.546;7.906;2023-08-08T11:03:00;20.30;54.90
20057;DHT22;10189;49.546;7.906;2023-08-08T11:05:34;21.00;51.50
20057;DHT22;10189;49.546;7.906;2023-08-08T11:08:02;21.20;51.70
20057;DHT22;10189;49.546;7.906;2023-08-08T11:10:35;21.40;48.60
20057;DHT22;10189;49.546;7.906;2023-08-08T11:13:04;21.30;48.80
20057;DHT22;10189;49.546;7.906;2023-08-08T11:15:33;21.10;51.10
20057;DHT22;10189;49.546;7.906;2023-08-08T11:18:00;21.10;50.40
20057;DHT22;10189;49.546;7.906;2023-08-08T11:20:35;20.90;49.90
20057;DHT22;10189;49.546;7.906;2023-08-08T11:23:02;21.10;48.80
20057;DHT22;10189;49.546;7.906;2023-08-08T11:25:36;21.00;47.50
20057;DHT22;10189;49.546;7.906;2023-08-08T11:28:05;21.20;49.70
20057;DHT22;10189;49.546;7.906;2023-08-08T11:30:34;21.70;50.00
20057;DHT22;10189;49.546;7.906;2023-08-08T11:33:03;21.60;46.00
20057;DHT22;10189;49.546;7.906;2023-08-08T11:35:29;21.70;45.40
20057;DHT22;10189;49.546;7.906;2023-08-08T11:37:57;21.10;45.30
20057;DHT22;10189;49.546;7.906;2023-08-08T11:40:26;20.80;47.90
20057;DHT22;10189;49.546;7.906;2023-08-08T11:42:55;21.00;48.50
20057;DHT22;10189;49.546;7.906;2023-08-08T11:45:24;20.90;48.10
20057;DHT22;10189;49.546;7.906;2023-08-08T11:47:52;20.80;48.00
20057;DHT22;10189;49.546;7.906;2023-08-08T11:50:21;20.70;48.20
20057;DHT22;10189;49.546;7.906;2023-08-08T11:52:50;20.60;47.30
20057;DHT22;10189;49.546;7.906;2023-08-08T11:55:26;20.90;47.40
20057;DHT22;10189;49.546;7.906;2023-08-08T11:57:54;21.20;48.20
20057;DHT22;10189;49.546;7.906;2023-08-08T12:00:27;20.90;47.10
20057;DHT22;10189;49.546;7.906;2023-08-08T12:02:55;21.20;46.50
20057;DHT22;10189;49.546;7.906;2023-08-08T12:05:21;21.20;51.00
20057;DHT22;10189;49.546;7.906;2023-08-08T12:07:48;21.40;51.50
20057;DHT22;10189;49.546;7.906;2023-08-08T12:10:20;21.10;48.40
20057;DHT22;10189;49.546;7.906;2023-08-08T12:13:01;21.00;49.60
20057;DHT22;10189;49.546;7.906;2023-08-08T12:15:32;20.90;49.70
20057;DHT22;10189;49.546;7.906;2023-08-08T12:18:01;20.90;48.60
20057;DHT22;10189;49.546;7.906;2023-08-08T12:20:29;21.10;48.30
20057;DHT22;10189;49.546;7.906;2023-08-08T12:22:57;21.30;49.40
20057;DHT22;10189;49.546;7.906;2023-08-08T12:25:23;21.00;48.70
20057;DHT22;10189;49.546;7.906;2023-08-08T12:27:49;20.70;47.10
20057;DHT22;10189;49.546;7.906;2023-08-08T12:30:15;20.70;48.30
20057;DHT22;10189;49.546;7.906;2023-08-08T12:32:41;20.80;50.20
20057;DHT22;10189;49.546;7.906;2023-08-08T12:35:07;20.80;47.20
20057;DHT22;10189;49.546;7.906;2023-08-08T12:37:33;20.70;47.90
20057;DHT22;10189;49.546;7.906;2023-08-08T12:39:59;20.80;51.40
20057;DHT22;10189;49.546;7.906;2023-08-08T12:42:25;20.90;48.80
20057;DHT22;10189;49.546;7.906;2023-08-08T12:44:53;21.00;48.30
20057;DHT22;10189;49.546;7.906;2023-08-08T12:47:19;21.50;47.00
20057;DHT22;10189;49.546;7.906;2023-08-08T12:49:47;21.60;49.70
20057;DHT22;10189;49.546;7.906;2023-08-08T12:52:13;21.70;49.30
20057;DHT22;10189;49.546;7.906;2023-08-08T12:54:39;22.00;47.80
20057;DHT22;10189;49.546;7.906;2023-08-08T12:57:05;22.20;48.60
20057;DHT22;10189;49.546;7.906;2023-08-08T12:59:31;22.30;47.60
20057;DHT22;10189;49.546;7.906;2023-08-08T13:01:57;22.10;44.80
20057;DHT22;10189;49.546;7.906;2023-08-08T13:04:23;21.60;47.20
20057;DHT22;10189;49.546;7.906;2023-08-08T13:06:49;21.40;50.80
20057;DHT22;10189;49.546;7.906;2023-08-08T13:09:15;21.30;49.50
20057;DHT22;10189;49.546;7.906;2023-08-08T13:11:41;21.00;50.20
20057;DHT22;10189;49.546;7.906;2023-08-08T13:14:07;21.10;48.80
20057;DHT22;10189;49.546;7.906;2023-08-08T13:16:33;21.20;49.80
20057;DHT22;10189;49.546;7.906;2023-08-08T13:18:59;21.00;49.30
20057;DHT22;10189;49.546;7.906;2023-08-08T13:21:27;20.90;50.00
20057;DHT22;10189;49.546;7.906;2023-08-08T13:23:53;21.00;48.60
20057;DHT22;10189;49.546;7.906;2023-08-08T13:26:19;20.70;50.00
20057;DHT22;10189;49.546;7.906;2023-08-08T13:28:45;20.50;50.60
20057;DHT22;10189;49.546;7.906;2023-08-08T13:31:11;20.20;51.20
20057;DHT22;10189;49.546;7.906;2023-08-08T13:33:37;20.10;52.90
20057;DHT22;10189;49.546;7.906;2023-08-08T13:36:03;20.00;52.10
20057;DHT22;10189;49.546;7.906;2023-08-08T13:38:29;20.20;52.90
20057;DHT22;10189;49.546;7.906;2023-08-08T13:40:55;20.20;52.10
20057;DHT22;10189;49.546;7.906;2023-08-08T13:43:22;20.10;53.30
20057;DHT22;10189;49.546;7.906;2023-08-08T13:45:48;20.20;51.90
20057;DHT22;10189;49.546;7.906;2023-08-08T13:48:15;20.30;52.10
20057;DHT22;10189;49.546;7.906;2023-08-08T13:50:41;20.20;52.00
20057;DHT22;10189;49.546;7.906;2023-08-08T13:53:07;20.20;52.60
20057;DHT22;10189;49.546;7.906;2023-08-08T13:55:33;20.30;53.30
20057;DHT22;10189;49.546;7.906;2023-08-08T13:58:04;20.40;52.10
20057;DHT22;10189;49.546;7.906;2023-08-08T14:00:31;20.20;51.90
20057;DHT22;10189;49.546;7.906;2023-08-08T14:02:58;20.10;51.40
20057;DHT22;10189;49.546;7.906;2023-08-08T14:05:24;19.80;52.50
20057;DHT22;10189;49.546;7.906;2023-08-08T14:07:52;19.80;52.50
20057;DHT22;10189;49.546;7.906;2023-08-08T14:10:18;19.50;52.40
20057;DHT22;10189;49.546;7.906;2023-08-08T14:12:44;19.40;55.20
20057;DHT22;10189;49.546;7.906;2023-08-08T14:15:11;19.20;54.00
20057;DHT22;10189;49.546;7.906;2023-08-08T14:17:37;19.10;54.70
20057;DHT22;10189;49.546;7.906;2023-08-08T14:20:03;18.80;56.40
20057;DHT22;10189;49.546;7.906;2023-08-08T14:22:30;18.70;56.70
20057;DHT22;10189;49.546;7.906;2023-08-08T14:24:59;18.70;56.30
20057;DHT22;10189;49.546;7.906;2023-08-08T14:27:25;18.80;57.30
20057;DHT22;10189;49.546;7.906;2023-08-08T14:29:52;19.00;57.00
20057;DHT22;10189;49.546;7.906;2023-08-08T14:32:18;19.20;57.10
20057;DHT22;10189;49.546;7.906;2023-08-08T14:34:44;19.10;57.40
20057;DHT22;10189;49.546;7.906;2023-08-08T14:37:10;19.00;57.20
20057;DHT22;10189;49.546;7.906;2023-08-08T14:39:36;19.00;58.40
20057;DHT22;10189;49.546;7.906;2023-08-08T14:42:03;19.10;57.60
20057;DHT22;10189;49.546;7.906;2023-08-08T14:44:29;19.40;58.10
20057;DHT22;10189;49.546;7.906;2023-08-08T14:46:55;19.60;57.40
20057;DHT22;10189;49.546;7.906;2023-08-08T14:49:22;19.60;57.80
20057;DHT22;10189;49.546;7.906;2023-08-08T14:51:48;19.50;57.10
20057;DHT22;10189;49.546;7.906;2023-08-08T14:54:14;19.30;56.60
20057;DHT22;10189;49.546;7.906;2023-08-08T14:56:40;19.30;57.80
20057;DHT22;10189;49.546;7.906;2023-08-08T14:59:06;19.20;57.80
20057;DHT22;10189;49.546;7.906;2023-08-08T15:01:32;19.30;57.90
20057;DHT22;10189;49.546;7.906;2023-08-08T15:03:58;19.30;57.60
20057;DHT22;10189;49.546;7.906;2023-08-08T15:06:24;19.40;58.50
20057;DHT22;10189;49.546;7.906;2023-08-08T15:08:50;19.30;58.00
20057;DHT22;10189;49.546;7.906;2023-08-08T15:11:17;19.20;58.00
20057;DHT22;10189;49.546;7.906;2023-08-08T15:13:43;19.00;59.50
20057;DHT22;10189;49.546;7.906;2023-08-08T15:16:09;18.90;59.20
20057;DHT22;10189;49.546;7.906;2023-08-08T15:18:35;18.80;60.80
20057;DHT22;10189;49.546;7.906;2023-08-08T15:21:01;18.60;60.40
20057;DHT22;10189;49.546;7.906;2023-08-08T15:23:28;18.50;61.30
20057;DHT22;10189;49.546;7.906;2023-08-08T15:25:54;18.40;61.60
20057;DHT22;10189;49.546;7.906;2023-08-08T15:28:21;18.40;61.80
20057;DHT22;10189;49.546;7.906;2023-08-08T15:30:47;18.40;63.20
20057;DHT22;10189;49.546;7.906;2023-08-08T15:33:13;18.40;62.30
20057;DHT22;10189;49.546;7.906;2023-08-08T15:35:39;18.50;63.40
20057;DHT22;10189;49.546;7.906;2023-08-08T15:38:05;18.60;61.70
20057;DHT22;10189;49.546;7.906;2023-08-08T15:40:31;18.70;62.50
20057;DHT22;10189;49.546;7.906;2023-08-08T15:42:57;18.70;62.30